Cross Timbers, Missouri
Current Conditions -  °F | °C
As of 9:15 AM on Thursday 30 Oct 2014 (Local Time) from KH21 Reporting Station
Overcast Overcast  
Wind Chill: 52°   Ceiling: 10000
Heat Index: 52°   Visibility: 10mi
Dew Point: 36°   Wind: 9mph
Humidity: 54%   Direction: 150°SSE
Pressure: 30.09"   Gusts: NA
Location:  38.02°N, 93.23°W
Report Text: KH21 301415Z AUTO 15008KT 10SM SCT070 OVC100 11/02 A3009 RMK AO2
Loading
Personal Weather Stations






























Interactive Weather Map
Tropical Storm Tracking
New forecast layout! Learn more

10-Day Weather Forecast

Advertisements
Track Severe Weather on mobile